Time;durP1;ratioP1;P1;durP2;ratioP2;P2;SDS_P1;SDS_P2;PMS_P1;PMS_P2;Temp;Humidity;BMP_temperature;BMP_pressure;BME280_temperature;BME280_humidity;BME280_pressure;Samples;Min_cycle;Max_cycle;Signal;HPM_P1;HPM_P2
2023/07/05 05:11:29;;;;;;;;;;;;;;;6.70;100.00;99233.03;5162177;23;20031;-89
2023/07/05 05:13:54;;;;;;;;;;;;;;;6.72;100.00;99239.97;5008313;28;20020;-85
2023/07/05 05:16:20;;;;;;;;;;;;;;;6.70;100.00;99247.09;4990848;28;19918;-87
2023/07/05 05:18:45;;;;;;;;;;;;;;;6.66;100.00;99248.09;4991125;28;20295;-91
2023/07/05 05:21:11;;;;;;;;;;;;;;;6.74;100.00;99242.56;4991110;28;19980;-88
2023/07/05 05:23:36;;;;;;;;;;;;;;;6.78;100.00;99248.56;5007407;28;19925;-88
2023/07/05 05:26:04;;;;;;;;;;;;;;;6.77;100.00;99252.13;4989787;28;19921;-89
2023/07/05 05:28:30;;;;;;;;;;;;;;;6.76;100.00;99255.66;5006441;28;20389;-91
2023/07/05 05:31:09;;;;;;;;;;;;;;;6.71;100.00;99261.09;5008401;28;19930;-92
2023/07/05 05:33:35;;;;;;;;;;;;;;;6.70;100.00;99259.38;5008207;28;19918;-90
2023/07/05 05:36:00;;;;;;;;;;;;;;;6.74;100.00;99263.63;4990854;28;19921;-90
2023/07/05 05:38:26;;;;;;;;;;;;;;;6.76;100.00;99271.47;4988209;28;19921;-92
2023/07/05 05:40:51;;;;;;;;;;;;;;;6.81;100.00;99266.88;5003829;28;19925;-88
2023/07/05 05:43:17;;;;;;;;;;;;;;;6.80;100.00;99273.94;4987677;28;19986;-89
2023/07/05 05:45:42;;;;;;;;;;;;;;;6.82;100.00;99276.53;4987740;28;20448;-90
2023/07/05 05:48:08;;;;;;;;;;;;;;;6.81;100.00;99274.78;5005759;28;19918;-90
2023/07/05 05:50:33;;;;;;;;;;;;;;;6.72;100.00;99286.53;5005161;28;19924;-90
2023/07/05 05:52:59;;;;;;;;;;;;;;;6.67;100.00;99286.69;4987259;28;20416;-89
2023/07/05 05:55:24;;;;;;;;;;;;;;;6.69;100.00;99292.75;5003235;28;19922;-90
2023/07/05 05:57:49;;;;;;;;;;;;;;;6.59;100.00;99296.63;5005281;28;20016;-89
2023/07/05 06:00:15;;;;;;;;;;;;;;;6.47;100.00;99308.41;5004766;28;19922;-88
2023/07/05 06:02:40;;;;;;;;;;;;;;;6.46;100.00;99305.81;5004693;28;19929;-89
2023/07/05 06:05:06;;;;;;;;;;;;;;;6.41;100.00;99307.75;5003205;28;20000;-89
2023/07/05 06:07:31;;;;;;;;;;;;;;;6.41;100.00;99318.28;4986901;28;19957;-90
2023/07/05 06:09:56;;;;;;;;;;;;;;;6.35;100.00;99325.47;4986096;28;20257;-89
2023/07/05 06:12:22;;;;;;;;;;;;;;;6.31;100.00;99323.00;5004623;28;19926;-89
2023/07/05 06:14:47;;;;;;;;;;;;;;;6.38;100.00;99328.91;4987112;28;19964;-89
2023/07/05 06:17:12;;;;;;;;;;;;;;;6.35;100.00;99333.38;4986564;28;19922;-89
2023/07/05 06:19:38;;;;;;;;;;;;;;;6.32;100.00;99338.72;4987165;28;19917;-90
2023/07/05 06:22:03;;;;;;;;;;;;;;;6.32;100.00;99336.09;4987276;28;19922;-90
2023/07/05 06:24:28;;;;;;;;;;;;;;;6.28;100.00;99336.25;5001711;28;19925;-89
2023/07/05 06:26:54;;;;;;;;;;;;;;;6.23;100.00;99346.91;4986806;28;20343;-92
2023/07/05 06:29:19;;;;;;;;;;;;;;;6.34;100.00;99357.97;5003998;28;19925;-90
2023/07/05 06:31:44;;;;;;;;;;;;;;;6.33;100.00;99351.00;5003959;28;20368;-90
2023/07/05 06:34:10;;;;;;;;;;;;;;;6.21;100.00;99354.00;5004794;28;20258;-92
2023/07/05 06:36:38;;;;;;;;;;;;;;;6.34;100.00;99360.59;4987080;28;19918;-92
2023/07/05 06:39:03;;;;;;;;;;;;;;;6.28;100.00;99350.25;4985607;28;20324;-90
2023/07/05 06:41:29;;;;;;;;;;;;;;;6.28;100.00;99354.66;4993054;28;19921;-90
2023/07/05 06:43:54;;;;;;;;;;;;;;;6.28;100.00;99358.16;4986141;28;19928;-89
2023/07/05 06:46:19;;;;;;;;;;;;;;;6.33;100.00;99358.88;4986378;28;20012;-90
2023/07/05 06:48:45;;;;;;;;;;;;;;;6.31;100.00;99359.84;5004384;28;19979;-90
2023/07/05 06:51:10;;;;;;;;;;;;;;;6.25;100.00;99366.13;4985001;28;19957;-92
2023/07/05 06:53:36;;;;;;;;;;;;;;;6.25;100.00;99371.41;4985908;28;20346;-91
2023/07/05 06:56:01;;;;;;;;;;;;;;;6.29;100.00;99372.19;4985172;28;19979;-90
2023/07/05 06:58:26;;;;;;;;;;;;;;;6.29;100.00;99369.56;4986758;28;19967;-92
2023/07/05 07:00:52;;;;;;;;;;;;;;;6.29;100.00;99372.19;4987004;28;19956;-87
2023/07/05 07:03:17;;;;;;;;;;;;;;;6.28;100.00;99381.84;5006229;28;20037;-91
2023/07/05 07:53:12;;;;;;;;;;;;;;;6.12;100.00;99441.09;5544965;23;19933;-90
2023/07/05 07:55:37;;;;;;;;;;;;;;;5.99;100.00;99444.09;4985664;28;19925;-89
2023/07/05 07:58:02;;;;;;;;;;;;;;;6.03;100.00;99441.38;5003372;28;20323;-89
2023/07/05 08:00:28;;;;;;;;;;;;;;;5.97;100.00;99456.44;5002936;28;19917;-89
2023/07/05 08:02:53;;;;;;;;;;;;;;;6.06;100.00;99449.19;4984714;28;20319;-87
2023/07/05 08:05:18;;;;;;;;;;;;;;;6.04;100.00;99451.00;5001252;28;20292;-93
2023/07/05 08:07:44;;;;;;;;;;;;;;;6.09;100.00;99455.19;4984833;28;19940;-91
2023/07/05 08:10:09;;;;;;;;;;;;;;;6.05;100.00;99458.84;4985907;28;19918;-92
2023/07/05 08:12:35;;;;;;;;;;;;;;;6.20;100.00;99461.94;5002727;28;20283;-89
2023/07/05 08:15:00;;;;;;;;;;;;;;;6.16;100.00;99461.16;5002980;28;19921;-92
2023/07/05 08:17:25;;;;;;;;;;;;;;;6.09;100.00;99467.50;4985281;28;19917;-85
2023/07/05 08:19:51;;;;;;;;;;;;;;;6.15;100.00;99462.06;5002850;28;20284;-84
2023/07/05 08:22:16;;;;;;;;;;;;;;;6.15;100.00;99475.22;5001061;28;19925;-84
2023/07/05 08:24:41;;;;;;;;;;;;;;;6.11;100.00;99470.94;4984439;28;19921;-85
2023/07/05 08:27:07;;;;;;;;;;;;;;;6.20;100.00;99468.03;5002224;28;20020;-86
2023/07/05 08:29:32;;;;;;;;;;;;;;;6.42;100.00;99468.25;5002617;28;19915;-85
2023/07/05 08:31:57;;;;;;;;;;;;;;;6.30;100.00;99473.88;4985111;28;19918;-84
2023/07/05 08:34:22;;;;;;;;;;;;;;;6.32;100.00;99472.09;5002349;28;19918;-84
2023/07/05 08:36:48;;;;;;;;;;;;;;;6.34;100.00;99468.47;5000775;28;19917;-83
2023/07/05 08:39:13;;;;;;;;;;;;;;;6.13;100.00;99469.16;4984806;28;19921;-86
2023/07/05 08:41:38;;;;;;;;;;;;;;;6.18;100.00;99469.84;5002341;28;19920;-85
2023/07/05 08:44:11;;;;;;;;;;;;;;;6.24;100.00;99474.06;5001800;28;19922;-82
2023/07/05 08:46:38;;;;;;;;;;;;;;;6.22;100.00;99483.78;5002015;28;19924;-84
2023/07/05 08:49:07;;;;;;;;;;;;;;;6.12;100.00;99480.56;5001566;28;19921;-83
2023/07/05 08:51:33;;;;;;;;;;;;;;;6.13;100.00;99485.78;5002618;28;19949;-85
2023/07/05 08:54:01;;;;;;;;;;;;;;;6.06;100.00;99483.38;5000404;28;19973;-86
2023/07/05 08:56:35;;;;;;;;;;;;;;;6.00;100.00;99493.16;5004307;28;19944;-85
2023/07/05 08:59:05;;;;;;;;;;;;;;;6.00;100.00;99487.91;5001952;28;19917;-84
2023/07/05 09:01:32;;;;;;;;;;;;;;;5.97;100.00;99489.78;5002614;28;19917;-84
2023/07/05 09:03:58;;;;;;;;;;;;;;;5.94;100.00;99498.56;5001845;28;20324;-84
2023/07/05 09:06:25;;;;;;;;;;;;;;;6.09;100.00;99504.31;5001413;28;19960;-83
2023/07/05 09:08:51;;;;;;;;;;;;;;;6.02;100.00;99500.16;5000629;28;19965;-85
2023/07/05 09:11:25;;;;;;;;;;;;;;;5.97;100.00;99501.16;5002539;28;20332;-86
2023/07/05 09:13:56;;;;;;;;;;;;;;;5.91;100.00;99489.91;5004104;28;19923;-81
2023/07/05 09:16:32;;;;;;;;;;;;;;;5.98;100.00;99500.25;4988975;28;20009;-88
2023/07/05 09:19:03;;;;;;;;;;;;;;;6.02;100.00;99505.44;5006788;28;19925;-91
2023/07/05 09:21:40;;;;;;;;;;;;;;;5.94;100.00;99519.59;5005888;28;20372;-87
2023/07/05 09:24:24;;;;;;;;;;;;;;;6.15;100.00;99509.41;5004205;28;19925;-83
2023/07/05 09:26:52;;;;;;;;;;;;;;;6.30;100.00;99510.72;4987800;28;20116;-86
2023/07/05 09:29:18;;;;;;;;;;;;;;;6.34;100.00;99507.97;5004821;28;19976;-88
2023/07/05 09:31:44;;;;;;;;;;;;;;;6.29;100.00;99520.41;5005644;28;19924;-89
2023/07/05 09:34:28;;;;;;;;;;;;;;;6.17;100.00;99534.78;5006030;28;19976;-84
2023/07/05 09:36:53;;;;;;;;;;;;;;;6.13;100.00;99527.88;4987915;28;19941;-87
2023/07/05 09:39:27;;;;;;;;;;;;;;;6.11;100.00;99541.97;5005085;28;19921;-87
2023/07/05 09:41:55;;;;;;;;;;;;;;;6.13;100.00;99545.44;5004998;28;20354;-85
2023/07/05 09:44:20;;;;;;;;;;;;;;;6.05;100.00;99542.13;4987363;28;19925;-87
2023/07/05 09:46:45;;;;;;;;;;;;;;;6.07;100.00;99546.47;5005692;28;19921;-89
2023/07/05 09:49:12;;;;;;;;;;;;;;;6.08;100.00;99547.31;5006453;28;19929;-86
2023/07/05 09:51:41;;;;;;;;;;;;;;;6.08;100.00;99553.47;4986956;28;20016;-84
2023/07/05 09:54:11;;;;;;;;;;;;;;;6.06;100.00;99549.13;5003883;28;20489;-86
2023/07/05 09:56:54;;;;;;;;;;;;;;;6.16;100.00;99554.09;5004634;28;19972;-86
2023/07/05 09:59:22;;;;;;;;;;;;;;;6.08;100.00;99547.31;5004623;28;19972;-84
2023/07/05 10:01:49;;;;;;;;;;;;;;;6.15;100.00;99560.25;5005290;28;19941;-89
2023/07/05 10:04:18;;;;;;;;;;;;;;;6.10;100.00;99540.25;5007047;28;19925;-89
2023/07/05 10:06:46;;;;;;;;;;;;;;;6.12;100.00;99543.69;5005300;28;19918;-84
2023/07/05 10:09:16;;;;;;;;;;;;;;;6.28;100.00;99549.38;5004951;28;20281;-83
2023/07/05 10:11:51;;;;;;;;;;;;;;;6.18;100.00;99544.38;5006557;28;20009;-84
2023/07/05 10:14:18;;;;;;;;;;;;;;;6.05;100.00;99548.28;5004702;28;20088;-84
2023/07/05 10:16:46;;;;;;;;;;;;;;;6.03;100.00;99551.84;5005660;28;20008;-93
2023/07/05 10:19:24;;;;;;;;;;;;;;;6.17;100.00;99558.47;4987734;28;19917;-94
2023/07/05 10:22:01;;;;;;;;;;;;;;;6.06;100.00;99549.13;4986479;28;19924;-87
2023/07/05 10:24:28;;;;;;;;;;;;;;;5.99;100.00;99559.81;5004303;28;19918;-86
2023/07/05 10:27:08;;;;;;;;;;;;;;;6.04;100.00;99556.22;5006737;28;19921;-84
2023/07/05 10:29:35;;;;;;;;;;;;;;;5.98;100.00;99555.47;5004262;28;19980;-85
2023/07/05 10:32:00;;;;;;;;;;;;;;;5.94;100.00;99560.84;5004272;28;20008;-88
2023/07/05 10:34:26;;;;;;;;;;;;;;;5.95;100.00;99554.66;5005477;28;20061;-88
2023/07/05 10:36:52;;;;;;;;;;;;;;;6.00;100.00;99572.06;4985468;28;20016;-86
2023/07/05 10:39:26;;;;;;;;;;;;;;;6.09;100.00;99565.69;5005727;28;19917;-89
2023/07/05 10:41:53;;;;;;;;;;;;;;;6.10;100.00;99575.31;5002495;28;19928;-86
2023/07/05 10:44:24;;;;;;;;;;;;;;;6.06;100.00;99567.53;4988050;28;20005;-84
2023/07/05 10:46:50;;;;;;;;;;;;;;;6.08;100.00;99569.25;5003709;28;19918;-84
2023/07/05 10:49:17;;;;;;;;;;;;;;;6.07;100.00;99577.16;5005922;28;19928;-87
2023/07/05 10:51:47;;;;;;;;;;;;;;;6.08;100.00;99578.88;5005383;28;20004;-84
2023/07/05 10:54:21;;;;;;;;;;;;;;;6.05;100.00;99579.84;5003630;28;20384;-85
2023/07/05 10:56:47;;;;;;;;;;;;;;;6.02;100.00;99571.19;5004070;28;19988;-83
2023/07/05 10:59:13;;;;;;;;;;;;;;;5.96;100.00;99588.81;4986239;28;20365;-88
2023/07/05 11:01:42;;;;;;;;;;;;;;;6.07;100.00;99582.44;5003850;28;19972;-87
2023/07/05 11:04:12;;;;;;;;;;;;;;;6.09;100.00;99570.94;5003386;28;19921;-83
2023/07/05 11:06:40;;;;;;;;;;;;;;;6.01;100.00;99583.44;5003700;28;19921;-92
2023/07/05 11:09:05;;;;;;;;;;;;;;;5.91;100.00;99576.69;5004218;28;19928;-85
2023/07/05 11:11:35;;;;;;;;;;;;;;;6.25;100.00;99589.78;5003840;28;20312;-86
2023/07/05 11:14:03;;;;;;;;;;;;;;;6.20;100.00;99583.81;5003540;28;19924;-84
2023/07/05 11:16:29;;;;;;;;;;;;;;;6.32;100.00;99578.19;5003502;28;19980;-84
2023/07/05 11:19:01;;;;;;;;;;;;;;;6.22;100.00;99570.59;5003878;28;19971;-84
2023/07/05 11:21:40;;;;;;;;;;;;;;;6.26;100.00;99567.84;5007203;28;19933;-87
2023/07/05 11:24:06;;;;;;;;;;;;;;;6.25;100.00;99566.09;5002211;28;19976;-84
2023/07/05 11:26:33;;;;;;;;;;;;;;;6.18;100.00;99575.94;5009521;28;19925;-89
2023/07/05 11:29:00;;;;;;;;;;;;;;;6.18;100.00;99585.63;5003632;28;19917;-84
2023/07/05 11:31:28;;;;;;;;;;;;;;;6.08;100.00;99574.50;5003275;28;20046;-91
2023/07/05 11:34:12;;;;;;;;;;;;;;;6.02;100.00;99572.03;5003531;28;19970;-84
2023/07/05 11:36:39;;;;;;;;;;;;;;;6.02;100.00;99571.19;5005764;28;19921;-83
2023/07/05 11:39:05;;;;;;;;;;;;;;;5.94;100.00;99564.31;5001763;28;19922;-89
2023/07/05 11:41:34;;;;;;;;;;;;;;;6.07;100.00;99561.38;5004768;28;19918;-84
2023/07/05 11:44:04;;;;;;;;;;;;;;;6.04;100.00;99553.59;5002770;28;19928;-84
2023/07/05 11:46:42;;;;;;;;;;;;;;;5.97;100.00;99564.28;5003016;28;19927;-84
2023/07/05 11:49:23;;;;;;;;;;;;;;;5.86;100.00;99566.28;5002788;28;19928;-83
2023/07/05 11:51:51;;;;;;;;;;;;;;;5.86;100.00;99579.44;5002102;28;19918;-84
2023/07/05 11:54:18;;;;;;;;;;;;;;;5.88;100.00;99575.00;4985664;28;20380;-83
2023/07/05 11:56:44;;;;;;;;;;;;;;;5.88;100.00;99576.78;5002757;28;19918;-83
2023/07/05 11:59:11;;;;;;;;;;;;;;;5.85;100.00;99563.72;5002597;28;19925;-83
2023/07/05 12:01:38;;;;;;;;;;;;;;;5.86;100.00;99563.66;5001873;28;19925;-84
2023/07/05 12:04:05;;;;;;;;;;;;;;;5.90;100.00;99567.91;5002930;28;19917;-84
2023/07/05 12:06:36;;;;;;;;;;;;;;;5.93;100.00;99580.13;5002250;28;19918;-84
2023/07/05 12:09:03;;;;;;;;;;;;;;;5.93;100.00;99575.72;5001364;28;19925;-84
2023/07/05 12:11:30;;;;;;;;;;;;;;;5.89;100.00;99579.38;4985136;28;19928;-84
2023/07/05 12:14:03;;;;;;;;;;;;;;;6.00;100.00;99582.59;5002442;28;19925;-85
2023/07/05 12:16:28;;;;;;;;;;;;;;;5.93;100.00;99574.88;5002684;28;19996;-86
2023/07/05 12:18:54;;;;;;;;;;;;;;;5.90;100.00;99578.44;4988660;28;19926;-83
2023/07/05 12:21:19;;;;;;;;;;;;;;;5.89;100.00;99574.09;5002153;28;20501;-84
2023/07/05 12:23:46;;;;;;;;;;;;;;;5.93;100.00;99588.88;4998231;28;19922;-94
2023/07/05 12:26:24;;;;;;;;;;;;;;;6.06;100.00;99575.44;4985271;28;19976;-84
2023/07/05 12:28:49;;;;;;;;;;;;;;;5.97;100.00;99587.94;5002629;28;19928;-83
2023/07/05 12:31:18;;;;;;;;;;;;;;;6.02;100.00;99582.56;5002436;28;19914;-83
2023/07/05 12:33:50;;;;;;;;;;;;;;;5.96;100.00;99591.47;4984839;28;19922;-82
2023/07/05 12:36:17;;;;;;;;;;;;;;;6.04;100.00;99587.78;5002606;28;19952;-84
2023/07/05 12:38:43;;;;;;;;;;;;;;;6.03;100.00;99586.91;5001602;28;19925;-92
2023/07/05 12:41:15;;;;;;;;;;;;;;;6.02;100.00;99579.06;4984588;28;20284;-86
2023/07/05 12:43:40;;;;;;;;;;;;;;;6.00;100.00;99577.34;5002884;28;19971;-84
2023/07/05 12:46:06;;;;;;;;;;;;;;;5.93;100.00;99574.88;5002233;28;19973;-85
2023/07/05 12:48:32;;;;;;;;;;;;;;;6.01;100.00;99578.19;4987902;28;20020;-88
2023/07/05 12:51:06;;;;;;;;;;;;;;;5.96;100.00;99577.44;5005913;28;20000;-84
2023/07/05 12:53:31;;;;;;;;;;;;;;;5.94;100.00;99571.34;5003762;28;19932;-84
2023/07/05 12:56:05;;;;;;;;;;;;;;;5.94;100.00;99571.34;5006222;28;19922;-84
2023/07/05 12:58:31;;;;;;;;;;;;;;;5.89;100.00;99558.31;5005350;28;20439;-82
2023/07/05 13:00:58;;;;;;;;;;;;;;;5.92;100.00;99560.00;5007515;28;20427;-83
2023/07/05 13:03:25;;;;;;;;;;;;;;;5.81;100.00;99570.81;5005597;28;19956;-85
2023/07/05 13:05:51;;;;;;;;;;;;;;;5.83;100.00;99558.50;5005368;28;19928;-84
2023/07/05 13:08:16;;;;;;;;;;;;;;;5.78;100.00;99561.25;5005651;28;19925;-85
2023/07/05 13:10:42;;;;;;;;;;;;;;;5.77;100.00;99558.66;5005443;28;20296;-83
2023/07/05 13:13:26;;;;;;;;;;;;;;;5.66;100.00;99560.69;5005157;28;20052;-84
2023/07/05 13:15:52;;;;;;;;;;;;;;;5.70;100.00;99562.38;5006303;28;19917;-84
2023/07/05 13:18:20;;;;;;;;;;;;;;;5.78;100.00;99555.13;5005474;28;20411;-84
2023/07/05 13:20:46;;;;;;;;;;;;;;;5.85;100.00;99566.34;5006261;28;19922;-84
2023/07/05 13:23:11;;;;;;;;;;;;;;;5.77;100.00;99564.75;5003560;28;19917;-84
2023/07/05 13:25:50;;;;;;;;;;;;;;;5.79;100.00;99557.72;5005544;28;19957;-92
2023/07/05 13:28:21;;;;;;;;;;;;;;;5.79;100.00;99562.97;4989551;28;20407;-88
2023/07/05 13:30:56;;;;;;;;;;;;;;;5.77;100.00;99570.00;5005436;28;19921;-83
2023/07/05 13:33:23;;;;;;;;;;;;;;;5.77;100.00;99561.28;5005516;28;19917;-85
2023/07/05 13:35:48;;;;;;;;;;;;;;;5.75;100.00;99549.94;4988251;28;20292;-84
2023/07/05 13:38:15;;;;;;;;;;;;;;;5.73;100.00;99562.28;5007518;28;19918;-86
2023/07/05 13:40:50;;;;;;;;;;;;;;;5.78;100.00;99565.66;5005510;28;19924;-88
2023/07/05 13:43:16;;;;;;;;;;;;;;;5.71;100.00;99558.81;5005417;28;19921;-87
2023/07/05 13:45:41;;;;;;;;;;;;;;;5.62;100.00;99559.94;5006074;28;19972;-84
2023/07/05 13:48:07;;;;;;;;;;;;;;;5.69;100.00;99565.88;5005337;28;19929;-85
2023/07/05 13:50:33;;;;;;;;;;;;;;;5.72;100.00;99560.53;5006379;28;19917;-91
2023/07/05 13:53:00;;;;;;;;;;;;;;;5.78;100.00;99566.50;5004117;28;19930;-87
2023/07/05 13:55:26;;;;;;;;;;;;;;;5.87;100.00;99565.41;5008553;28;19972;-85
2023/07/05 13:57:59;;;;;;;;;;;;;;;5.80;100.00;99572.56;5004753;28;19921;-84
2023/07/05 14:00:29;;;;;;;;;;;;;;;5.88;100.00;99566.25;5004179;28;19963;-85
2023/07/05 14:02:54;;;;;;;;;;;;;;;5.79;100.00;99562.97;5005241;28;19922;-85
2023/07/05 14:05:20;;;;;;;;;;;;;;;5.73;100.00;99567.53;5005132;28;19922;-86
2023/07/05 14:07:46;;;;;;;;;;;;;;;5.76;100.00;99559.53;5002973;28;19929;-88
2023/07/05 14:10:12;;;;;;;;;;;;;;;5.80;100.00;99563.81;5005026;28;19918;-84
2023/07/05 14:12:38;;;;;;;;;;;;;;;5.72;100.00;99561.41;5004713;28;20493;-85
2023/07/05 14:15:03;;;;;;;;;;;;;;;5.87;100.00;99549.63;5004417;28;20361;-85
2023/07/05 14:17:35;;;;;;;;;;;;;;;5.86;100.00;99560.19;5005806;28;19991;-85
2023/07/05 14:20:01;;;;;;;;;;;;;;;5.81;100.00;99561.16;5016837;28;19925;-91
2023/07/05 14:22:26;;;;;;;;;;;;;;;5.78;100.00;99555.13;5007981;28;19929;-84
2023/07/05 14:24:52;;;;;;;;;;;;;;;5.83;100.00;99569.00;5005964;28;19918;-85
2023/07/05 14:27:17;;;;;;;;;;;;;;;5.91;100.00;99560.91;4987795;28;19925;-93
2023/07/05 14:29:44;;;;;;;;;;;;;;;5.92;100.00;99557.34;5007657;28;19917;-91
2023/07/05 14:32:10;;;;;;;;;;;;;;;5.93;100.00;99559.09;5004892;28;20020;-85
2023/07/05 14:34:35;;;;;;;;;;;;;;;5.89;100.00;99558.31;5005560;28;19918;-90
2023/07/05 14:37:00;;;;;;;;;;;;;;;5.88;100.00;99561.84;5004523;28;19921;-85
2023/07/05 14:39:25;;;;;;;;;;;;;;;5.86;100.00;99557.56;5005125;28;19929;-85
2023/07/05 14:41:52;;;;;;;;;;;;;;;5.89;100.00;99565.34;4988792;28;20127;-88
2023/07/05 14:44:17;;;;;;;;;;;;;;;5.87;100.00;99562.78;5005769;28;19918;-89
2023/07/05 14:46:43;;;;;;;;;;;;;;;5.95;100.00;99562.53;5005248;28;19937;-90
2023/07/05 14:49:08;;;;;;;;;;;;;;;5.92;100.00;99568.75;5003460;23;19926;-88
2023/07/05 14:51:34;;;;;;;;;;;;;;;6.03;100.00;99562.38;4975525;28;20369;-88
2023/07/05 14:53:59;;;;;;;;;;;;;;;6.00;100.00;99572.06;4994767;28;20448;-87
2023/07/05 14:56:24;;;;;;;;;;;;;;;6.08;100.00;99563.09;4999060;28;20816;-86
2023/07/05 14:58:49;;;;;;;;;;;;;;;6.04;100.00;99566.72;5001451;28;19934;-85
2023/07/05 15:01:16;;;;;;;;;;;;;;;6.00;100.00;99561.56;5002728;28;19928;-86
2023/07/05 15:03:46;;;;;;;;;;;;;;;6.00;100.00;99563.34;5004187;28;19921;-85
2023/07/05 15:06:11;;;;;;;;;;;;;;;5.94;100.00;99566.94;4998760;28;19929;-85
2023/07/05 15:08:36;;;;;;;;;;;;;;;5.92;100.00;99570.50;4999835;28;19936;-85
2023/07/05 15:11:02;;;;;;;;;;;;;;;5.90;100.00;99573.19;4998368;28;20369;-87
2023/07/05 15:13:31;;;;;;;;;;;;;;;5.87;100.00;99568.03;4993041;28;20334;-87
2023/07/05 15:15:57;;;;;;;;;;;;;;;5.84;100.00;99565.47;5000982;28;19926;-89
2023/07/05 15:18:22;;;;;;;;;;;;;;;5.80;100.00;99569.09;4981903;28;19922;-85
2023/07/05 15:20:47;;;;;;;;;;;;;;;5.79;100.00;99565.59;4998938;28;19957;-86
2023/07/05 15:23:12;;;;;;;;;;;;;;;5.90;100.00;99567.06;4981080;28;19941;-84
2023/07/05 15:25:38;;;;;;;;;;;;;;;5.97;100.00;99560.78;4997599;28;19928;-84
2023/07/05 15:28:05;;;;;;;;;;;;;;;5.83;100.00;99553.22;5001485;28;19926;-85
2023/07/05 15:30:30;;;;;;;;;;;;;;;5.95;100.00;99558.16;5000008;28;19993;-95
2023/07/05 15:32:56;;;;;;;;;;;;;;;5.98;100.00;99555.47;4980973;28;20008;-84
2023/07/05 15:35:22;;;;;;;;;;;;;;;5.95;100.00;99567.78;5001728;28;19928;-88
2023/07/05 15:37:47;;;;;;;;;;;;;;;5.98;100.00;99562.50;5003813;28;19925;-84
2023/07/05 15:40:13;;;;;;;;;;;;;;;5.99;100.00;99557.19;5002180;28;19969;-85
2023/07/05 15:42:38;;;;;;;;;;;;;;;5.97;100.00;99566.03;5002113;28;19921;-85
2023/07/05 15:45:05;;;;;;;;;;;;;;;5.98;100.00;99560.75;5003479;28;19922;-86
2023/07/05 15:47:30;;;;;;;;;;;;;;;5.98;100.00;99558.13;5002712;28;19918;-85
2023/07/05 15:49:56;;;;;;;;;;;;;;;5.94;100.00;99559.06;5002066;28;19929;-88
2023/07/05 15:52:21;;;;;;;;;;;;;;;5.91;100.00;99564.41;5002059;28;20020;-85
2023/07/05 15:54:47;;;;;;;;;;;;;;;5.94;100.00;99556.44;5000032;28;19924;-85
2023/07/05 15:57:12;;;;;;;;;;;;;;;5.95;100.00;99557.28;5002548;28;19921;-84
2023/07/05 15:59:37;;;;;;;;;;;;;;;5.91;100.00;99548.63;5002514;28;20039;-85
2023/07/05 16:02:04;;;;;;;;;;;;;;;5.89;100.00;99558.31;5002268;28;19965;-84
2023/07/05 16:04:30;;;;;;;;;;;;;;;5.87;100.00;99557.50;4994595;28;20005;-85
2023/07/05 16:06:56;;;;;;;;;;;;;;;5.85;100.00;99556.66;4998544;28;19979;-84
2023/07/05 16:09:21;;;;;;;;;;;;;;;5.95;100.00;99558.16;5001003;28;19918;-88
2023/07/05 16:11:47;;;;;;;;;;;;;;;5.94;100.00;99556.44;5002349;28;19926;-84
2023/07/05 16:14:12;;;;;;;;;;;;;;;6.02;100.00;99552.78;5003411;28;20266;-85
2023/07/05 16:16:37;;;;;;;;;;;;;;;6.02;100.00;99551.00;5001904;28;19922;-85
2023/07/05 16:19:03;;;;;;;;;;;;;;;6.00;100.00;99555.44;5003292;28;19925;-85
2023/07/05 16:21:28;;;;;;;;;;;;;;;6.04;100.00;99558.84;5002794;28;19965;-85
2023/07/05 16:23:53;;;;;;;;;;;;;;;5.95;100.00;99558.16;5004590;28;19976;-89
2023/07/05 16:26:20;;;;;;;;;;;;;;;6.03;100.00;99554.47;4984430;28;20264;-85
2023/07/05 16:28:45;;;;;;;;;;;;;;;5.97;100.00;99545.84;4998999;28;19918;-86
2023/07/05 16:31:11;;;;;;;;;;;;;;;6.03;100.00;99538.69;5002319;28;19932;-84
2023/07/05 16:33:36;;;;;;;;;;;;;;;6.01;100.00;99536.09;5002678;28;20316;-84
2023/07/05 16:36:03;;;;;;;;;;;;;;;5.98;100.00;99547.59;5002124;28;19965;-84
2023/07/05 16:38:28;;;;;;;;;;;;;;;5.95;100.00;99552.91;4983152;28;19925;-85
2023/07/05 16:40:57;;;;;;;;;;;;;;;5.98;100.00;99547.59;5001085;28;19921;-85
2023/07/05 16:43:24;;;;;;;;;;;;;;;5.92;100.00;99550.34;5001416;28;20347;-85
2023/07/05 16:45:49;;;;;;;;;;;;;;;5.95;100.00;99554.66;5002303;28;19926;-84
2023/07/05 16:48:14;;;;;;;;;;;;;;;5.94;100.00;99551.16;5002198;28;19922;-86
2023/07/05 16:50:40;;;;;;;;;;;;;;;5.87;100.00;99552.25;5002805;28;19974;-90
2023/07/05 16:53:05;;;;;;;;;;;;;;;5.94;100.00;99543.28;5001740;28;19940;-88
2023/07/05 16:55:31;;;;;;;;;;;;;;;6.06;100.00;99546.50;5001591;28;20380;-89
2023/07/05 16:57:56;;;;;;;;;;;;;;;5.94;100.00;99552.94;4983834;28;19924;-91
2023/07/05 17:00:22;;;;;;;;;;;;;;;5.93;100.00;99552.06;5010475;23;20373;-85
2023/07/05 17:02:47;;;;;;;;;;;;;;;5.88;100.00;99551.34;4982518;28;20005;-89
2023/07/05 17:05:12;;;;;;;;;;;;;;;5.90;100.00;99549.50;5001721;28;20013;-87
2023/07/05 17:07:38;;;;;;;;;;;;;;;5.89;100.00;99553.06;5002268;28;19921;-90
2023/07/05 17:10:03;;;;;;;;;;;;;;;5.86;100.00;99547.88;4987799;28;20426;-86
2023/07/05 17:12:30;;;;;;;;;;;;;;;5.88;100.00;99547.84;5002788;28;19963;-86
2023/07/05 17:14:55;;;;;;;;;;;;;;;5.94;100.00;99551.16;5003348;28;19925;-88
2023/07/05 17:17:21;;;;;;;;;;;;;;;5.84;100.00;99544.44;5006190;28;19996;-89
2023/07/05 17:19:47;;;;;;;;;;;;;;;5.87;100.00;99549.63;4997747;28;20016;-92
2023/07/05 17:22:12;;;;;;;;;;;;;;;5.85;100.00;99551.41;4998248;28;20440;-93
2023/07/05 17:24:40;;;;;;;;;;;;;;;5.91;100.00;99548.63;5005093;28;20439;-91
2023/07/05 17:27:05;;;;;;;;;;;;;;;5.90;100.00;99549.50;5000730;28;21714;-89
2023/07/05 17:29:31;;;;;;;;;;;;;;;5.85;100.00;99540.03;4997972;28;20431;-85
2023/07/05 17:31:56;;;;;;;;;;;;;;;5.89;100.00;99542.53;5001559;28;19972;-88
2023/07/05 17:34:22;;;;;;;;;;;;;;;5.91;100.00;99546.00;4983866;28;19926;-87
2023/07/05 17:36:48;;;;;;;;;;;;;;;5.93;100.00;99543.31;4990790;28;19917;-90
2023/07/05 17:39:13;;;;;;;;;;;;;;;5.90;100.00;99541.63;5003070;28;19926;-88
2023/07/05 17:41:40;;;;;;;;;;;;;;;5.90;100.00;99540.78;5003693;28;20018;-89
2023/07/05 17:44:06;;;;;;;;;;;;;;;5.93;100.00;99538.91;4989616;28;20366;-91
2023/07/05 17:46:38;;;;;;;;;;;;;;;5.94;100.00;99540.66;5006442;28;19925;-88
2023/07/05 17:49:03;;;;;;;;;;;;;;;5.94;100.00;99551.16;5004424;28;19932;-84
2023/07/05 17:51:29;;;;;;;;;;;;;;;5.94;100.00;99547.69;5000562;28;19921;-90
2023/07/05 17:53:55;;;;;;;;;;;;;;;5.93;100.00;99543.31;5005318;28;20016;-89
2023/07/05 17:56:21;;;;;;;;;;;;;;;5.96;100.00;99549.38;5008253;28;19925;-91
2023/07/05 17:58:47;;;;;;;;;;;;;;;6.02;100.00;99543.09;4991090;28;19971;-92
2023/07/05 18:01:15;;;;;;;;;;;;;;;6.02;100.00;99558.88;5008549;28;19922;-87
2023/07/05 18:03:41;;;;;;;;;;;;;;;6.03;100.00;99546.59;5008602;28;19940;-89
2023/07/05 18:06:07;;;;;;;;;;;;;;;5.93;100.00;99554.69;5003838;28;20691;-88
2023/07/05 18:08:33;;;;;;;;;;;;;;;5.99;100.00;99554.56;5004626;28;19918;-87
2023/07/05 18:10:59;;;;;;;;;;;;;;;5.95;100.00;99563.41;5001192;28;19928;-85
2023/07/05 18:13:29;;;;;;;;;;;;;;;6.01;100.00;99554.50;5009137;28;20373;-85
2023/07/05 18:15:58;;;;;;;;;;;;;;;7.92;100.00;99551.13;5003331;28;19956;-89
2023/07/05 18:18:24;;;;;;;;;;;;;;;6.70;100.00;99557.78;5003778;28;19921;-85
2023/07/05 18:20:49;;;;;;;;;;;;;;;6.42;100.00;99556.88;4984323;28;19928;-88
2023/07/05 18:23:14;;;;;;;;;;;;;;;6.34;100.00;99565.00;5005897;28;19917;-90
2023/07/05 18:25:40;;;;;;;;;;;;;;;6.32;100.00;99561.56;5002921;28;19945;-87
2023/07/05 18:28:05;;;;;;;;;;;;;;;6.29;100.00;99564.28;4984822;28;19928;-87
2023/07/05 18:30:30;;;;;;;;;;;;;;;6.32;100.00;99572.94;5006276;28;20281;-88
2023/07/05 18:32:56;;;;;;;;;;;;;;;6.27;100.00;99571.31;5004796;28;19960;-88
2023/07/05 18:35:21;;;;;;;;;;;;;;;6.23;100.00;99570.56;4988130;28;19917;-88
2023/07/05 18:37:46;;;;;;;;;;;;;;;6.26;100.00;99574.88;5001285;28;19960;-92
2023/07/05 18:40:12;;;;;;;;;;;;;;;6.26;100.00;99575.75;5005602;28;19925;-89
2023/07/05 18:42:37;;;;;;;;;;;;;;;6.24;100.00;99579.31;4986733;28;19922;-90
2023/07/05 18:45:03;;;;;;;;;;;;;;;6.18;100.00;99569.84;5003173;28;19976;-92